Time;durP1;ratioP1;P1;durP2;ratioP2;P2;SDS_P1;SDS_P2;PMS_P1;PMS_P2;Temp;Humidity;BMP_temperature;BMP_pressure;BME280_temperature;BME280_humidity;BME280_pressure;Samples;Min_cycle;Max_cycle;Signal;HPM_P1;HPM_P2
2023/11/04 00:02:12;;;;;;;;;;;;;;;;;;5104511;28;19931;-77
2023/11/04 00:04:40;;;;;;;;;;;;;;;;;;5101592;28;19939;-75
2023/11/04 00:07:08;;;;;;;;;;;;;;;;;;5103330;28;19978;-78
2023/11/04 00:09:35;;;;;;;;;;;;;;;;;;5107585;28;19978;-76
2023/11/04 00:12:13;;;;;;;;;;;;;;;;;;5107999;28;19923;-77
2023/11/04 00:14:40;;;;;;;;;;;;;;;;;;5096897;28;19932;-77
2023/11/04 00:17:06;;;;;;;;;;;;;;;;;;5107352;28;20039;-76
2023/11/04 00:19:33;;;;;;;;;;;;;;;;;;5111713;28;20027;-78
2023/11/04 00:22:00;;;;;;;;;;;;;;;;;;5089448;28;19973;-77
2023/11/04 00:24:26;;;;;;;;;;;;;;;;;;5104765;28;20407;-77
2023/11/04 00:26:55;;;;;;;;;;;;;;;;;;5096665;28;19973;-76
2023/11/04 00:29:22;;;;;;;;;;;;;;;;;;5109885;28;19932;-76
2023/11/04 00:31:49;;;;;;;;;;;;;;;;;;5106077;28;19924;-75
2023/11/04 00:34:15;;;;;;;;;;;;;;;;;;5111430;28;19923;-77
2023/11/04 00:36:43;;;;;;;;;;;;;;;;;;5104260;28;19924;-76
2023/11/04 00:39:14;;;;;;;;;;;;;;;;;;5093610;28;19924;-77
2023/11/04 00:41:43;;;;;;;;;;;;;;;;;;5099224;28;19924;-77
2023/11/04 00:44:10;;;;;;;;;;;;;;;;;;5101317;28;19932;-77
2023/11/04 00:46:38;;;;;;;;;;;;;;;;;;5109522;28;19963;-77
2023/11/04 00:49:05;;;;;;;;;;;;;;;;;;5103210;28;19947;-77
2023/11/04 00:51:36;;;;;;;;;;;;;;;;;;5105921;28;19965;-76
2023/11/04 00:54:03;;;;;;;;;;;;;;;;;;5108742;28;19963;-75
2023/11/04 00:56:33;;;;;;;;;;;;;;;;;;5103215;28;20016;-75
2023/11/04 00:58:59;;;;;;;;;;;;;;;;;;5105934;28;20388;-77
2023/11/04 01:01:26;;;;;;;;;;;;;;;;;;5110639;28;19931;-77
2023/11/04 01:03:52;;;;;;;;;;;;;;;;;;5106427;28;19923;-76
2023/11/04 01:06:19;;;;;;;;;;;;;;;;;;5108165;28;19924;-76
2023/11/04 01:08:47;;;;;;;;;;;;;;;;;;5106935;28;19949;-75
2023/11/04 01:11:14;;;;;;;;;;;;;;;;;;5087038;28;19924;-74
2023/11/04 01:13:41;;;;;;;;;;;;;;;;;;5114081;28;19982;-75
2023/11/04 01:16:08;;;;;;;;;;;;;;;;;;5100233;28;20392;-76
2023/11/04 01:18:34;;;;;;;;;;;;;;;;;;5103209;28;20295;-75
2023/11/04 01:21:01;;;;;;;;;;;;;;;;;;5084235;28;20319;-76
2023/11/04 01:23:28;;;;;;;;;;;;;;;;;;5092632;28;20321;-77
2023/11/04 01:25:54;;;;;;;;;;;;;;;;;;5113670;28;19938;-77
2023/11/04 01:28:21;;;;;;;;;;;;;;;;;;5090808;28;20014;-77
2023/11/04 01:30:48;;;;;;;;;;;;;;;;;;5106986;28;19935;-77
2023/11/04 01:33:15;;;;;;;;;;;;;;;;;;5107494;28;19924;-77
2023/11/04 01:35:42;;;;;;;;;;;;;;;;;;5106258;28;19924;-76
2023/11/04 01:38:09;;;;;;;;;;;;;;;;;;5110085;28;20291;-75
2023/11/04 01:40:35;;;;;;;;;;;;;;;;;;5104359;28;20053;-75
2023/11/04 01:43:02;;;;;;;;;;;;;;;;;;5106890;28;20005;-77
2023/11/04 01:45:28;;;;;;;;;;;;;;;;;;5107316;28;19965;-77
2023/11/04 01:47:55;;;;;;;;;;;;;;;;;;5102786;28;19932;-76
2023/11/04 01:50:21;;;;;;;;;;;;;;;;;;5105395;28;19924;-77
2023/11/04 01:52:48;;;;;;;;;;;;;;;;;;5087885;28;19942;-77
2023/11/04 01:55:15;;;;;;;;;;;;;;;;;;5108576;28;20383;-76
2023/11/04 01:57:43;;;;;;;;;;;;;;;;;;5103960;28;19990;-77
2023/11/04 02:00:09;;;;;;;;;;;;;;;;;;5107209;28;19924;-76
2023/11/04 02:02:39;;;;;;;;;;;;;;;;;;5109168;28;19967;-76
2023/11/04 02:05:05;;;;;;;;;;;;;;;;;;5102948;28;20506;-77
2023/11/04 02:07:32;;;;;;;;;;;;;;;;;;5101496;28;19924;-76
2023/11/04 02:09:58;;;;;;;;;;;;;;;;;;5089687;28;19932;-77
2023/11/04 02:12:25;;;;;;;;;;;;;;;;;;5107615;28;19931;-77
2023/11/04 02:14:52;;;;;;;;;;;;;;;;;;5107038;28;20360;-76
2023/11/04 02:17:19;;;;;;;;;;;;;;;;;;5106640;28;19962;-76
2023/11/04 02:19:45;;;;;;;;;;;;;;;;;;5102109;28;20043;-77
2023/11/04 02:22:12;;;;;;;;;;;;;;;;;;5086521;28;19970;-77
2023/11/04 02:24:38;;;;;;;;;;;;;;;;;;5104974;28;19990;-77
2023/11/04 02:27:07;;;;;;;;;;;;;;;;;;5099447;28;20061;-76
2023/11/04 02:29:34;;;;;;;;;;;;;;;;;;5106457;28;20002;-76
2023/11/04 02:32:01;;;;;;;;;;;;;;;;;;5082070;28;19931;-76
2023/11/04 02:34:28;;;;;;;;;;;;;;;;;;5106795;28;20392;-77
2023/11/04 02:36:54;;;;;;;;;;;;;;;;;;5092364;28;19984;-76
2023/11/04 02:39:21;;;;;;;;;;;;;;;;;;5106172;28;19935;-76
2023/11/04 02:41:53;;;;;;;;;;;;;;;;;;5086617;28;19928;-77
2023/11/04 02:44:20;;;;;;;;;;;;;;;;;;5102567;28;19967;-77
2023/11/04 02:46:46;;;;;;;;;;;;;;;;;;5101525;28;19924;-76
2023/11/04 02:49:15;;;;;;;;;;;;;;;;;;5103387;28;19924;-76
2023/11/04 02:51:42;;;;;;;;;;;;;;;;;;5106731;28;19923;-76
2023/11/04 02:54:09;;;;;;;;;;;;;;;;;;5102849;28;19924;-76
2023/11/04 02:56:35;;;;;;;;;;;;;;;;;;5101256;28;20384;-77
2023/11/04 02:59:02;;;;;;;;;;;;;;;;;;5093247;28;19942;-76
2023/11/04 03:01:28;;;;;;;;;;;;;;;;;;5112899;28;19934;-77
2023/11/04 03:03:55;;;;;;;;;;;;;;;;;;5100074;28;20285;-76
2023/11/04 03:06:24;;;;;;;;;;;;;;;;;;5104958;28;19935;-76
2023/11/04 03:08:51;;;;;;;;;;;;;;;;;;5104202;28;19981;-76
2023/11/04 03:11:18;;;;;;;;;;;;;;;;;;5105521;28;19924;-77
2023/11/04 03:13:44;;;;;;;;;;;;;;;;;;5105485;28;20399;-77
2023/11/04 03:16:11;;;;;;;;;;;;;;;;;;5085241;28;19982;-77
2023/11/04 03:18:38;;;;;;;;;;;;;;;;;;5100310;28;19924;-76
2023/11/04 03:21:05;;;;;;;;;;;;;;;;;;5105746;28;19931;-77
2023/11/04 03:23:32;;;;;;;;;;;;;;;;;;5092608;28;20437;-77
2023/11/04 03:25:58;;;;;;;;;;;;;;;;;;5101705;28;19925;-76
2023/11/04 03:28:25;;;;;;;;;;;;;;;;;;5085695;28;19974;-76
2023/11/04 03:30:53;;;;;;;;;;;;;;;;;;5098770;28;19947;-77
2023/11/04 03:33:20;;;;;;;;;;;;;;;;;;5084149;28;19934;-76
2023/11/04 03:35:46;;;;;;;;;;;;;;;;;;5105554;28;20286;-75
2023/11/04 03:38:14;;;;;;;;;;;;;;;;;;5085792;28;20319;-77
2023/11/04 03:40:41;;;;;;;;;;;;;;;;;;5093966;28;20301;-77
2023/11/04 03:43:08;;;;;;;;;;;;;;;;;;5094764;28;19931;-77
2023/11/04 03:45:35;;;;;;;;;;;;;;;;;;5103804;28;19928;-77
2023/11/04 03:48:01;;;;;;;;;;;;;;;;;;5087410;28;19928;-76
2023/11/04 03:50:29;;;;;;;;;;;;;;;;;;5106094;28;19927;-76
2023/11/04 03:52:55;;;;;;;;;;;;;;;;;;5097273;28;20384;-78
2023/11/04 03:55:22;;;;;;;;;;;;;;;;;;5097530;28;19925;-76
2023/11/04 03:57:50;;;;;;;;;;;;;;;;;;5090868;28;20332;-76
2023/11/04 04:00:16;;;;;;;;;;;;;;;;;;5082854;28;19924;-76
2023/11/04 04:02:43;;;;;;;;;;;;;;;;;;5112766;27;19931;-77
2023/11/04 04:05:10;;;;;;;;;;;;;;;;;;5104381;28;19965;-75
2023/11/04 04:07:36;;;;;;;;;;;;;;;;;;5103076;28;20018;-75
2023/11/04 04:10:03;;;;;;;;;;;;;;;;;;5096633;28;20391;-75
2023/11/04 04:12:29;;;;;;;;;;;;;;;;;;5097757;28;20015;-75
2023/11/04 04:14:56;;;;;;;;;;;;;;;;;;5105187;28;20009;-77
2023/11/04 04:17:22;;;;;;;;;;;;;;;;;;5084152;28;19955;-76
2023/11/04 04:19:48;;;;;;;;;;;;;;;;;;5098872;28;20019;-76
2023/11/04 04:22:15;;;;;;;;;;;;;;;;;;5106283;28;19924;-76
2023/11/04 04:24:42;;;;;;;;;;;;;;;;;;5102681;28;20449;-77
2023/11/04 04:27:10;;;;;;;;;;;;;;;;;;5106201;28;20335;-76
2023/11/04 04:29:37;;;;;;;;;;;;;;;;;;5106020;28;20018;-76
2023/11/04 04:32:04;;;;;;;;;;;;;;;;;;5105783;28;20010;-77
2023/11/04 04:34:30;;;;;;;;;;;;;;;;;;5096869;28;19930;-76
2023/11/04 04:36:58;;;;;;;;;;;;;;;;;;5086371;28;19924;-76
2023/11/04 04:39:25;;;;;;;;;;;;;;;;;;5102923;28;20026;-76
2023/11/04 04:41:52;;;;;;;;;;;;;;;;;;5106121;28;19924;-77
2023/11/04 04:44:18;;;;;;;;;;;;;;;;;;5101628;28;20007;-76
2023/11/04 04:46:44;;;;;;;;;;;;;;;;;;5090844;28;19958;-77
2023/11/04 04:49:11;;;;;;;;;;;;;;;;;;5109473;28;19947;-76
2023/11/04 04:51:38;;;;;;;;;;;;;;;;;;5103451;28;19930;-76
2023/11/04 04:54:05;;;;;;;;;;;;;;;;;;5090610;28;19931;-77
2023/11/04 04:56:31;;;;;;;;;;;;;;;;;;5111794;28;19934;-77
2023/11/04 04:58:58;;;;;;;;;;;;;;;;;;5090562;28;20019;-76
2023/11/04 05:01:25;;;;;;;;;;;;;;;;;;5089822;28;19931;-77
2023/11/04 05:03:53;;;;;;;;;;;;;;;;;;5112696;28;19939;-77
2023/11/04 05:06:19;;;;;;;;;;;;;;;;;;5096822;28;19928;-76
2023/11/04 05:08:49;;;;;;;;;;;;;;;;;;5090485;28;19924;-77
2023/11/04 05:11:15;;;;;;;;;;;;;;;;;;5116899;27;19930;-76
2023/11/04 05:13:42;;;;;;;;;;;;;;;;;;5109237;28;19930;-76
2023/11/04 05:16:09;;;;;;;;;;;;;;;;;;5105556;28;19954;-76
2023/11/04 05:18:35;;;;;;;;;;;;;;;;;;5105197;28;20355;-77
2023/11/04 05:21:04;;;;;;;;;;;;;;;;;;5104965;28;19924;-76
2023/11/04 05:23:31;;;;;;;;;;;;;;;;;;5088717;28;19928;-76
2023/11/04 05:26:00;;;;;;;;;;;;;;;;;;5110634;28;19931;-77
2023/11/04 05:28:27;;;;;;;;;;;;;;;;;;5101647;28;19931;-76
2023/11/04 05:30:55;;;;;;;;;;;;;;;;;;5103627;28;20022;-76
2023/11/04 05:33:21;;;;;;;;;;;;;;;;;;5111929;28;19928;-75
2023/11/04 05:35:48;;;;;;;;;;;;;;;;;;5107052;28;19924;-75
2023/11/04 05:38:14;;;;;;;;;;;;;;;;;;5107533;28;20304;-75
2023/11/04 05:40:41;;;;;;;;;;;;;;;;;;5108460;28;19928;-75
2023/11/04 05:43:07;;;;;;;;;;;;;;;;;;5106679;28;20292;-76
2023/11/04 05:45:33;;;;;;;;;;;;;;;;;;5100385;28;19928;-76
2023/11/04 05:48:00;;;;;;;;;;;;;;;;;;5090248;28;20012;-76
2023/11/04 05:50:27;;;;;;;;;;;;;;;;;;5087361;28;20015;-76
2023/11/04 05:52:53;;;;;;;;;;;;;;;;;;5106149;28;19932;-76
2023/11/04 05:55:19;;;;;;;;;;;;;;;;;;5101999;28;20031;-77
2023/11/04 05:57:46;;;;;;;;;;;;;;;;;;5088584;28;19973;-76
2023/11/04 06:00:12;;;;;;;;;;;;;;;;;;5108134;28;20432;-76
2023/11/04 06:02:39;;;;;;;;;;;;;;;;;;5098801;28;19924;-76
2023/11/04 06:05:07;;;;;;;;;;;;;;;;;;5079590;28;19931;-76
2023/11/04 06:07:34;;;;;;;;;;;;;;;;;;5106078;28;20015;-75
2023/11/04 06:10:00;;;;;;;;;;;;;;;;;;5085929;28;19928;-76
2023/11/04 06:12:27;;;;;;;;;;;;;;;;;;5101580;28;20023;-76
2023/11/04 06:14:53;;;;;;;;;;;;;;;;;;5111943;28;19923;-76
2023/11/04 06:17:20;;;;;;;;;;;;;;;;;;5103802;28;19928;-75
2023/11/04 06:19:46;;;;;;;;;;;;;;;;;;5098777;28;20576;-74
2023/11/04 06:22:14;;;;;;;;;;;;;;;;;;5107369;28;19931;-76
2023/11/04 06:24:41;;;;;;;;;;;;;;;;;;5110246;28;19937;-77
2023/11/04 06:27:08;;;;;;;;;;;;;;;;;;5101268;28;20352;-77
2023/11/04 06:29:37;;;;;;;;;;;;;;;;;;5085686;28;19936;-76
2023/11/04 06:32:04;;;;;;;;;;;;;;;;;;5106716;28;19938;-76
2023/11/04 06:34:31;;;;;;;;;;;;;;;;;;5105677;28;20032;-76
2023/11/04 06:37:02;;;;;;;;;;;;;;;;;;5095555;28;19930;-75
2023/11/04 06:39:29;;;;;;;;;;;;;;;;;;5108973;28;19931;-76
2023/11/04 06:41:56;;;;;;;;;;;;;;;;;;5110531;28;19935;-76
2023/11/04 06:44:23;;;;;;;;;;;;;;;;;;5087733;28;20376;-76
2023/11/04 06:46:49;;;;;;;;;;;;;;;;;;5110024;28;19938;-76
2023/11/04 06:49:17;;;;;;;;;;;;;;;;;;5097444;28;19967;-76
2023/11/04 06:51:43;;;;;;;;;;;;;;;;;;5105292;28;20261;-76
2023/11/04 06:54:10;;;;;;;;;;;;;;;;;;5106159;28;19974;-75
2023/11/04 06:56:38;;;;;;;;;;;;;;;;;;5111706;28;20295;-75
2023/11/04 06:59:09;;;;;;;;;;;;;;;;;;5101910;28;19951;-79
2023/11/04 07:01:37;;;;;;;;;;;;;;;;;;5080335;28;20003;-77
2023/11/04 07:04:05;;;;;;;;;;;;;;;;;;5106324;28;19957;-77
2023/11/04 07:06:31;;;;;;;;;;;;;;;;;;5105046;28;19927;-78
2023/11/04 07:08:58;;;;;;;;;;;;;;;;;;5090121;28;19946;-78
2023/11/04 07:11:25;;;;;;;;;;;;;;;;;;5102211;28;19967;-77
2023/11/04 07:13:54;;;;;;;;;;;;;;;;;;5081674;28;19955;-77
2023/11/04 07:16:22;;;;;;;;;;;;;;;;;;5109171;28;19928;-77
2023/11/04 07:18:49;;;;;;;;;;;;;;;;;;5091468;28;19970;-77
2023/11/04 07:21:19;;;;;;;;;;;;;;;;;;5101985;28;19924;-78
2023/11/04 07:23:47;;;;;;;;;;;;;;;;;;5114083;27;19935;-76
2023/11/04 07:26:14;;;;;;;;;;;;;;;;;;5106797;28;19996;-78
2023/11/04 07:28:41;;;;;;;;;;;;;;;;;;5106303;28;19977;-77
2023/11/04 07:31:12;;;;;;;;;;;;;;;;;;5099759;28;19925;-77
2023/11/04 07:33:39;;;;;;;;;;;;;;;;;;5103850;28;19934;-77
2023/11/04 07:36:06;;;;;;;;;;;;;;;;;;5105382;28;20891;-77
2023/11/04 07:38:32;;;;;;;;;;;;;;;;;;5102931;28;19966;-75
2023/11/04 07:40:59;;;;;;;;;;;;;;;;;;5104121;28;19924;-76
2023/11/04 07:43:29;;;;;;;;;;;;;;;;;;5093385;28;20018;-76
2023/11/04 07:45:57;;;;;;;;;;;;;;;;;;5092498;28;19932;-78
2023/11/04 07:48:24;;;;;;;;;;;;;;;;;;5099785;28;20372;-75
2023/11/04 07:50:51;;;;;;;;;;;;;;;;;;5107072;28;20295;-78
2023/11/04 07:53:17;;;;;;;;;;;;;;;;;;5106347;28;19924;-79
2023/11/04 07:55:44;;;;;;;;;;;;;;;;;;5100697;28;19970;-75
2023/11/04 07:58:14;;;;;;;;;;;;;;;;;;5105978;28;20391;-78
2023/11/04 08:00:43;;;;;;;;;;;;;;;;;;5105191;28;19923;-77
2023/11/04 08:03:10;;;;;;;;;;;;;;;;;;5103459;28;20364;-76
2023/11/04 08:05:40;;;;;;;;;;;;;;;;;;5104299;28;20333;-76
2023/11/04 08:08:06;;;;;;;;;;;;;;;;;;5111179;28;20372;-76
2023/11/04 08:10:33;;;;;;;;;;;;;;;;;;5102712;28;20431;-77
2023/11/04 08:13:04;;;;;;;;;;;;;;;;;;5108315;28;20381;-76
2023/11/04 08:15:31;;;;;;;;;;;;;;;;;;5105975;28;19930;-76
2023/11/04 08:17:59;;;;;;;;;;;;;;;;;;5106937;28;19924;-76
2023/11/04 08:20:26;;;;;;;;;;;;;;;;;;5101552;28;19971;-76
2023/11/04 08:22:53;;;;;;;;;;;;;;;;;;5089332;28;20033;-76
2023/11/04 08:25:22;;;;;;;;;;;;;;;;;;5089445;28;19927;-78
2023/11/04 08:27:49;;;;;;;;;;;;;;;;;;5096119;28;19925;-78
2023/11/04 08:30:15;;;;;;;;;;;;;;;;;;5096224;28;20384;-76
2023/11/04 08:32:42;;;;;;;;;;;;;;;;;;5092640;28;19938;-76
2023/11/04 08:35:09;;;;;;;;;;;;;;;;;;5108480;28;19928;-75
2023/11/04 08:37:35;;;;;;;;;;;;;;;;;;5106249;28;20372;-77
2023/11/04 08:40:03;;;;;;;;;;;;;;;;;;5103010;28;19927;-77
2023/11/04 08:42:29;;;;;;;;;;;;;;;;;;5102724;28;19969;-75
2023/11/04 08:44:56;;;;;;;;;;;;;;;;;;5102461;28;20025;-76
2023/11/04 08:47:22;;;;;;;;;;;;;;;;;;5102330;28;19967;-76
2023/11/04 08:49:49;;;;;;;;;;;;;;;;;;5102204;28;19923;-77
2023/11/04 08:52:16;;;;;;;;;;;;;;;;;;5102045;28;19930;-76
2023/11/04 08:54:43;;;;;;;;;;;;;;;;;;5104897;28;19974;-76
2023/11/04 08:57:10;;;;;;;;;;;;;;;;;;5103720;28;19977;-75
2023/11/04 08:59:36;;;;;;;;;;;;;;;;;;5103590;28;19998;-76
2023/11/04 09:02:02;;;;;;;;;;;;;;;;;;5101221;28;20026;-75
2023/11/04 09:04:29;;;;;;;;;;;;;;;;;;5105458;28;19940;-76
2023/11/04 09:06:56;;;;;;;;;;;;;;;;;;5092350;28;19924;-75
2023/11/04 09:09:23;;;;;;;;;;;;;;;;;;5098386;28;19935;-74
2023/11/04 09:11:50;;;;;;;;;;;;;;;;;;5100086;28;19962;-76
2023/11/04 09:14:16;;;;;;;;;;;;;;;;;;5105052;28;19924;-76
2023/11/04 09:16:43;;;;;;;;;;;;;;;;;;5106170;28;20036;-75
2023/11/04 09:19:09;;;;;;;;;;;;;;;;;;5097959;28;19928;-75
2023/11/04 09:21:36;;;;;;;;;;;;;;;;;;5102749;28;19935;-76
2023/11/04 09:24:07;;;;;;;;;;;;;;;;;;5107426;28;19924;-75
2023/11/04 09:26:34;;;;;;;;;;;;;;;;;;5104870;28;20035;-77
2023/11/04 09:29:02;;;;;;;;;;;;;;;;;;5094273;28;19977;-77
2023/11/04 09:31:29;;;;;;;;;;;;;;;;;;5095957;28;19924;-76
2023/11/04 09:33:57;;;;;;;;;;;;;;;;;;5083270;28;19932;-76
2023/11/04 09:36:23;;;;;;;;;;;;;;;;;;5101628;28;19928;-76
2023/11/04 09:38:50;;;;;;;;;;;;;;;;;;5099823;28;19930;-76
2023/11/04 09:41:16;;;;;;;;;;;;;;;;;;5104361;28;19924;-76
2023/11/04 09:43:43;;;;;;;;;;;;;;;;;;5108075;28;20271;-77
2023/11/04 09:46:10;;;;;;;;;;;;;;;;;;5101832;28;19981;-76
2023/11/04 09:48:37;;;;;;;;;;;;;;;;;;5092246;28;19963;-75
2023/11/04 09:51:05;;;;;;;;;;;;;;;;;;5109535;28;19931;-76
2023/11/04 09:53:32;;;;;;;;;;;;;;;;;;5089838;28;20044;-73
2023/11/04 09:55:58;;;;;;;;;;;;;;;;;;5105497;28;20492;-76
2023/11/04 09:58:25;;;;;;;;;;;;;;;;;;5100867;28;20012;-76
2023/11/04 10:00:52;;;;;;;;;;;;;;;;;;5107436;28;20366;-75
2023/11/04 10:03:19;;;;;;;;;;;;;;;;;;5102058;28;19960;-76
2023/11/04 10:05:47;;;;;;;;;;;;;;;;;;5110239;28;20453;-76
2023/11/04 10:08:15;;;;;;;;;;;;;;;;;;5098890;28;19959;-76
2023/11/04 10:10:41;;;;;;;;;;;;;;;;;;5107068;28;20281;-76
2023/11/04 10:13:08;;;;;;;;;;;;;;;;;;5105228;28;20300;-76
2023/11/04 10:15:34;;;;;;;;;;;;;;;;;;5107382;28;20029;-76
2023/11/04 10:18:01;;;;;;;;;;;;;;;;;;5105630;28;20413;-75
2023/11/04 10:20:27;;;;;;;;;;;;;;;;;;5103479;28;19924;-74
2023/11/04 10:22:56;;;;;;;;;;;;;;;;;;5113381;27;19928;-76
2023/11/04 10:25:23;;;;;;;;;;;;;;;;;;5100116;28;20386;-75
2023/11/04 10:27:50;;;;;;;;;;;;;;;;;;5111001;28;19924;-76
2023/11/04 10:30:16;;;;;;;;;;;;;;;;;;5084014;28;19967;-76
2023/11/04 10:32:43;;;;;;;;;;;;;;;;;;5100266;28;19982;-75
2023/11/04 10:35:09;;;;;;;;;;;;;;;;;;5103213;28;19932;-75
2023/11/04 10:37:36;;;;;;;;;;;;;;;;;;5111556;28;19923;-77
2023/11/04 10:40:06;;;;;;;;;;;;;;;;;;5104335;28;19931;-76
2023/11/04 10:42:32;;;;;;;;;;;;;;;;;;5093151;28;19930;-76
2023/11/04 10:44:59;;;;;;;;;;;;;;;;;;5104415;28;19931;-78
2023/11/04 10:47:26;;;;;;;;;;;;;;;;;;5084754;28;19977;-76
2023/11/04 10:49:53;;;;;;;;;;;;;;;;;;5106483;28;19928;-74
2023/11/04 10:52:19;;;;;;;;;;;;;;;;;;5101716;28;19931;-75
2023/11/04 10:54:48;;;;;;;;;;;;;;;;;;5095102;28;20011;-76
2023/11/04 10:57:17;;;;;;;;;;;;;;;;;;5108325;28;20437;-76
2023/11/04 10:59:43;;;;;;;;;;;;;;;;;;5105880;28;19923;-76
2023/11/04 11:02:10;;;;;;;;;;;;;;;;;;5090499;28;19946;-76
2023/11/04 11:04:37;;;;;;;;;;;;;;;;;;5093081;28;19924;-77
2023/11/04 11:07:05;;;;;;;;;;;;;;;;;;5112681;28;20400;-74
2023/11/04 11:09:31;;;;;;;;;;;;;;;;;;5105315;28;19977;-77
2023/11/04 11:11:58;;;;;;;;;;;;;;;;;;5102432;28;19924;-81
2023/11/04 11:14:25;;;;;;;;;;;;;;;;;;5096329;28;19928;-78
2023/11/04 11:16:54;;;;;;;;;;;;;;;;;;5105856;28;19927;-80
2023/11/04 11:19:22;;;;;;;;;;;;;;;;;;5106976;28;19931;-79
2023/11/04 11:21:49;;;;;;;;;;;;;;;;;;5110887;28;19924;-78
2023/11/04 11:24:16;;;;;;;;;;;;;;;;;;5089357;28;20330;-80
2023/11/04 11:26:42;;;;;;;;;;;;;;;;;;5103526;28;20388;-80
2023/11/04 11:29:10;;;;;;;;;;;;;;;;;;5092056;28;19928;-80
2023/11/04 11:31:36;;;;;;;;;;;;;;;;;;5107302;28;20423;-80
2023/11/04 11:34:03;;;;;;;;;;;;;;;;;;5103415;28;19928;-79
2023/11/04 11:36:31;;;;;;;;;;;;;;;;;;5099718;28;19924;-80
2023/11/04 11:38:58;;;;;;;;;;;;;;;;;;5103000;28;19924;-79
2023/11/04 11:41:25;;;;;;;;;;;;;;;;;;5101483;28;19963;-81
2023/11/04 11:43:59;;;;;;;;;;;;;;;;;;5101602;28;19928;-79
2023/11/04 11:46:27;;;;;;;;;;;;;;;;;;5108581;28;20033;-80
2023/11/04 11:48:55;;;;;;;;;;;;;;;;;;5106975;28;19928;-81
2023/11/04 11:51:23;;;;;;;;;;;;;;;;;;5107555;28;20342;-80
2023/11/04 11:53:51;;;;;;;;;;;;;;;;;;5102795;28;19923;-80
2023/11/04 11:56:21;;;;;;;;;;;;;;;;;;5104582;28;19924;-79
2023/11/04 11:58:48;;;;;;;;;;;;;;;;;;5105662;28;19927;-80
2023/11/04 12:01:19;;;;;;;;;;;;;;;;;;5107240;28;19928;-80
2023/11/04 12:03:52;;;;;;;;;;;;;;;;;;5094152;28;20405;-80
2023/11/04 12:06:22;;;;;;;;;;;;;;;;;;5094425;28;19930;-78
2023/11/04 12:08:50;;;;;;;;;;;;;;;;;;5102811;28;19928;-79
2023/11/04 12:11:17;;;;;;;;;;;;;;;;;;5097462;28;20110;-78
2023/11/04 12:13:44;;;;;;;;;;;;;;;;;;5103269;28;20003;-80
2023/11/04 12:16:13;;;;;;;;;;;;;;;;;;5104440;28;19928;-81
2023/11/04 12:18:39;;;;;;;;;;;;;;;;;;5105408;28;19924;-78
2023/11/04 12:21:10;;;;;;;;;;;;;;;;;;5098826;28;19928;-78
2023/11/04 12:23:37;;;;;;;;;;;;;;;;;;5109737;28;19950;-79
2023/11/04 12:26:06;;;;;;;;;;;;;;;;;;5087304;28;19932;-79
2023/11/04 12:28:37;;;;;;;;;;;;;;;;;;5108304;28;19935;-80
2023/11/04 12:31:04;;;;;;;;;;;;;;;;;;5101137;28;19951;-78
2023/11/04 12:33:31;;;;;;;;;;;;;;;;;;5092015;28;20026;-78
2023/11/04 12:36:00;;;;;;;;;;;;;;;;;;5108200;28;19928;-79
2023/11/04 12:38:32;;;;;;;;;;;;;;;;;;5101991;28;19936;-78
2023/11/04 12:40:59;;;;;;;;;;;;;;;;;;5108402;28;19924;-81
2023/11/04 12:43:30;;;;;;;;;;;;;;;;;;5101030;28;19924;-77
2023/11/04 12:45:57;;;;;;;;;;;;;;;;;;5106323;28;20011;-81
2023/11/04 12:48:24;;;;;;;;;;;;;;;;;;5102010;28;19924;-79
2023/11/04 12:50:51;;;;;;;;;;;;;;;;;;5098025;28;19924;-80
2023/11/04 12:53:18;;;;;;;;;;;;;;;;;;5085845;28;19980;-76
2023/11/04 12:55:47;;;;;;;;;;;;;;;;;;5104764;28;19970;-79
2023/11/04 12:58:14;;;;;;;;;;;;;;;;;;5102068;28;20014;-79
2023/11/04 13:00:40;;;;;;;;;;;;;;;;;;5099607;28;19928;-78
2023/11/04 13:03:07;;;;;;;;;;;;;;;;;;5106804;28;20376;-77
2023/11/04 13:05:36;;;;;;;;;;;;;;;;;;5108550;28;19930;-76
2023/11/04 13:08:04;;;;;;;;;;;;;;;;;;5102219;28;19935;-77
2023/11/04 13:10:30;;;;;;;;;;;;;;;;;;5094751;28;19928;-77
2023/11/04 13:12:57;;;;;;;;;;;;;;;;;;5104574;28;19951;-77
2023/11/04 13:15:24;;;;;;;;;;;;;;;;;;5104713;28;19924;-77
2023/11/04 13:17:50;;;;;;;;;;;;;;;;;;5104129;27;19970;-77
2023/11/04 13:20:17;;;;;;;;;;;;;;;;;;5105475;28;19924;-76
2023/11/04 13:22:45;;;;;;;;;;;;;;;;;;5110980;28;20414;-78
2023/11/04 13:25:11;;;;;;;;;;;;;;;;;;5106202;28;19939;-79
2023/11/04 13:27:39;;;;;;;;;;;;;;;;;;5093688;28;19924;-79
2023/11/04 13:30:05;;;;;;;;;;;;;;;;;;5097820;28;19932;-77
2023/11/04 13:32:33;;;;;;;;;;;;;;;;;;5104657;28;19965;-79
2023/11/04 13:34:59;;;;;;;;;;;;;;;;;;5110238;28;19963;-78
2023/11/04 13:37:26;;;;;;;;;;;;;;;;;;5109267;28;19928;-79
2023/11/04 13:39:53;;;;;;;;;;;;;;;;;;5107852;28;20275;-77
2023/11/04 13:42:21;;;;;;;;;;;;;;;;;;5108828;28;19995;-77
2023/11/04 13:44:48;;;;;;;;;;;;;;;;;;5108058;28;19932;-78
2023/11/04 13:47:16;;;;;;;;;;;;;;;;;;5103408;28;19931;-80
2023/11/04 13:49:45;;;;;;;;;;;;;;;;;;5105859;28;19924;-79
2023/11/04 13:52:15;;;;;;;;;;;;;;;;;;5084113;28;19931;-80
2023/11/04 13:54:41;;;;;;;;;;;;;;;;;;5108038;28;20292;-81
2023/11/04 13:57:08;;;;;;;;;;;;;;;;;;5090285;28;20253;-79
2023/11/04 13:59:36;;;;;;;;;;;;;;;;;;5099916;28;19959;-81
2023/11/04 14:02:02;;;;;;;;;;;;;;;;;;5107337;28;19924;-77
2023/11/04 14:04:28;;;;;;;;;;;;;;;;;;5105131;28;19976;-79
2023/11/04 14:06:55;;;;;;;;;;;;;;;;;;5110288;28;19923;-79
2023/11/04 14:09:23;;;;;;;;;;;;;;;;;;5107919;28;19932;-79
2023/11/04 14:11:50;;;;;;;;;;;;;;;;;;5112164;28;20291;-79
2023/11/04 14:14:16;;;;;;;;;;;;;;;;;;5090101;28;20023;-79
2023/11/04 14:16:43;;;;;;;;;;;;;;;;;;5099211;28;19969;-77
2023/11/04 14:19:11;;;;;;;;;;;;;;;;;;5109098;28;19959;-78
2023/11/04 14:21:37;;;;;;;;;;;;;;;;;;5101491;28;19932;-79
2023/11/04 14:24:04;;;;;;;;;;;;;;;;;;5107012;28;19932;-78
2023/11/04 14:26:30;;;;;;;;;;;;;;;;;;5094460;28;19977;-76
2023/11/04 14:28:57;;;;;;;;;;;;;;;;;;5112498;28;19995;-80
2023/11/04 14:31:25;;;;;;;;;;;;;;;;;;5103039;28;19927;-81
2023/11/04 14:33:51;;;;;;;;;;;;;;;;;;5103948;28;19950;-79
2023/11/04 14:36:18;;;;;;;;;;;;;;;;;;5101695;28;19924;-77
2023/11/04 14:38:44;;;;;;;;;;;;;;;;;;5110941;28;19924;-77
2023/11/04 14:41:11;;;;;;;;;;;;;;;;;;5106589;28;19985;-78
2023/11/04 14:43:37;;;;;;;;;;;;;;;;;;5102531;28;19924;-80
2023/11/04 14:46:05;;;;;;;;;;;;;;;;;;5109385;28;19987;-80
2023/11/04 14:48:31;;;;;;;;;;;;;;;;;;5111301;28;19927;-78
2023/11/04 14:50:59;;;;;;;;;;;;;;;;;;5103366;28;19928;-78
2023/11/04 14:53:26;;;;;;;;;;;;;;;;;;5103634;28;19923;-80
2023/11/04 14:55:54;;;;;;;;;;;;;;;;;;5100066;28;19924;-78
2023/11/04 14:58:20;;;;;;;;;;;;;;;;;;5100230;28;19997;-77
2023/11/04 15:00:47;;;;;;;;;;;;;;;;;;5093685;28;20269;-76
2023/11/04 15:03:16;;;;;;;;;;;;;;;;;;5080532;28;19982;-77
2023/11/04 15:05:43;;;;;;;;;;;;;;;;;;5086282;28;19924;-78
2023/11/04 15:08:11;;;;;;;;;;;;;;;;;;5105005;28;19928;-76
2023/11/04 15:10:38;;;;;;;;;;;;;;;;;;5094677;28;19928;-77
2023/11/04 15:13:04;;;;;;;;;;;;;;;;;;5091516;28;19928;-78
2023/11/04 15:15:30;;;;;;;;;;;;;;;;;;5103008;28;19943;-77
2023/11/04 15:17:58;;;;;;;;;;;;;;;;;;5101253;28;19969;-76
2023/11/04 15:20:26;;;;;;;;;;;;;;;;;;5105109;28;19928;-80
2023/11/04 15:22:54;;;;;;;;;;;;;;;;;;5109074;28;20050;-74
2023/11/04 15:25:21;;;;;;;;;;;;;;;;;;5090426;28;19924;-75
2023/11/04 15:27:48;;;;;;;;;;;;;;;;;;5102841;28;19931;-74
2023/11/04 15:30:17;;;;;;;;;;;;;;;;;;5112163;28;19927;-78
2023/11/04 15:32:45;;;;;;;;;;;;;;;;;;5089238;28;19927;-79
2023/11/04 15:35:11;;;;;;;;;;;;;;;;;;5099146;28;19931;-80
2023/11/04 15:37:45;;;;;;;;;;;;;;;;;;5113973;28;20324;-79
2023/11/04 15:40:12;;;;;;;;;;;;;;;;;;5102245;28;20450;-80
2023/11/04 15:42:38;;;;;;;;;;;;;;;;;;5107389;28;19928;-81
2023/11/04 15:45:08;;;;;;;;;;;;;;;;;;5103339;28;19981;-81
2023/11/04 15:47:35;;;;;;;;;;;;;;;;;;5104049;28;19978;-79
2023/11/04 15:50:02;;;;;;;;;;;;;;;;;;5088416;28;20034;-79
2023/11/04 15:52:29;;;;;;;;;;;;;;;;;;5100961;28;19928;-79
2023/11/04 15:55:00;;;;;;;;;;;;;;;;;;5102750;28;19972;-81
2023/11/04 15:57:29;;;;;;;;;;;;;;;;;;5097913;28;19924;-80
2023/11/04 16:00:02;;;;;;;;;;;;;;;;;;5100194;28;20354;-82
2023/11/04 16:02:30;;;;;;;;;;;;;;;;;;5103999;28;19924;-81
2023/11/04 16:04:58;;;;;;;;;;;;;;;;;;5102002;28;20337;-80
2023/11/04 16:07:25;;;;;;;;;;;;;;;;;;5098374;28;20380;-80
2023/11/04 16:09:51;;;;;;;;;;;;;;;;;;5100930;28;19928;-81
2023/11/04 16:12:21;;;;;;;;;;;;;;;;;;5106260;28;19931;-80
2023/11/04 16:14:49;;;;;;;;;;;;;;;;;;5104518;28;20022;-81
2023/11/04 16:17:19;;;;;;;;;;;;;;;;;;5105649;28;20017;-80
2023/11/04 16:19:48;;;;;;;;;;;;;;;;;;5099952;28;19923;-78
2023/11/04 16:22:18;;;;;;;;;;;;;;;;;;5088288;28;19931;-80
2023/11/04 16:24:49;;;;;;;;;;;;;;;;;;5090077;28;20269;-79
2023/11/04 16:27:23;;;;;;;;;;;;;;;;;;5103438;28;19997;-81
2023/11/04 16:29:50;;;;;;;;;;;;;;;;;;5101065;28;19932;-80
2023/11/04 16:32:17;;;;;;;;;;;;;;;;;;5103297;28;19955;-77
2023/11/04 16:34:43;;;;;;;;;;;;;;;;;;5095581;28;20296;-76
2023/11/04 16:37:10;;;;;;;;;;;;;;;;;;5101217;28;19931;-79
2023/11/04 16:39:37;;;;;;;;;;;;;;;;;;5106095;28;20002;-77
2023/11/04 16:42:04;;;;;;;;;;;;;;;;;;5102851;28;19924;-77
2023/11/04 16:44:30;;;;;;;;;;;;;;;;;;5100528;28;19924;-79
2023/11/04 16:47:00;;;;;;;;;;;;;;;;;;5107627;28;19930;-78